createdAt,value
2023-09-17T00:01:17.562Z,4.05
2023-09-17T00:02:49.600Z,3.92
2023-09-17T00:04:21.619Z,4.13
2023-09-17T00:05:53.567Z,3.42
2023-09-17T00:07:25.484Z,3.40
2023-09-17T00:08:57.358Z,3.80
2023-09-17T00:10:29.304Z,3.33
2023-09-17T00:12:01.265Z,3.03
2023-09-17T00:13:33.389Z,3.58
2023-09-17T00:15:06.078Z,3.10
2023-09-17T00:16:40.030Z,3.65
2023-09-17T00:18:12.040Z,3.58
2023-09-17T00:19:43.900Z,3.30
2023-09-17T00:21:15.821Z,3.70
2023-09-17T00:22:47.770Z,3.22
2023-09-17T00:24:19.728Z,3.38
2023-09-17T00:25:52.013Z,3.33
2023-09-17T00:27:23.974Z,3.33
2023-09-17T00:28:55.833Z,3.22
2023-09-17T00:30:29.050Z,3.33
2023-09-17T00:32:01.171Z,3.08
2023-09-17T00:33:33.117Z,3.22
2023-09-17T00:35:06.428Z,3.38
2023-09-17T00:36:39.123Z,3.00
2023-09-17T00:38:11.012Z,3.60
2023-09-17T00:39:42.875Z,3.47
2023-09-17T00:41:15.108Z,3.60
2023-09-17T00:42:46.979Z,2.85
2023-09-17T00:44:19.255Z,3.20
2023-09-17T00:45:51.456Z,3.38
2023-09-17T00:47:23.850Z,3.40
2023-09-17T00:48:55.806Z,3.05
2023-09-17T00:50:27.991Z,3.30
2023-09-17T00:52:00.279Z,3.20
2023-09-17T00:53:32.492Z,3.03
2023-09-17T00:55:05.303Z,3.17
2023-09-17T00:56:38.358Z,2.80
2023-09-17T00:58:10.579Z,2.80
2023-09-17T00:59:44.347Z,2.92
2023-09-17T01:01:16.335Z,3.00
2023-09-17T01:02:49.477Z,3.25
2023-09-17T01:04:21.813Z,2.88
2023-09-17T01:05:55.309Z,2.85
2023-09-17T01:07:27.737Z,3.00
2023-09-17T01:09:00.389Z,3.35
2023-09-17T01:10:34.785Z,3.08
2023-09-17T01:12:07.717Z,3.03
2023-09-17T01:13:43.320Z,2.88
2023-09-17T01:15:15.472Z,3.20
2023-09-17T01:16:47.876Z,2.83
2023-09-17T01:18:23.680Z,2.88
2023-09-17T01:19:56.735Z,3.25
2023-09-17T01:21:37.601Z,2.90
2023-09-17T01:23:24.767Z,2.75
2023-09-17T01:25:06.693Z,3.00
2023-09-17T01:26:42.332Z,2.90
2023-09-17T01:28:14.954Z,3.13
2023-09-17T01:29:50.853Z,3.17
2023-09-17T01:31:24.592Z,3.25
2023-09-17T01:32:56.545Z,2.80
2023-09-17T01:34:31.416Z,2.58
2023-09-17T01:36:20.264Z,2.67
2023-09-17T01:37:56.220Z,3.03
2023-09-17T01:39:35.021Z,3.15
2023-09-17T01:41:09.118Z,2.60
2023-09-17T01:42:44.967Z,2.80
2023-09-17T01:44:17.225Z,2.92
2023-09-17T01:45:49.859Z,3.00
2023-09-17T01:47:23.720Z,2.58
2023-09-17T01:48:56.537Z,2.92
2023-09-17T01:50:30.002Z,2.40
2023-09-17T01:52:02.607Z,2.53
2023-09-17T01:53:35.084Z,2.90
2023-09-17T01:55:09.906Z,2.92
2023-09-17T01:56:43.328Z,2.50
2023-09-17T01:58:17.532Z,2.78
2023-09-17T01:59:49.510Z,2.80
2023-09-17T02:01:21.513Z,2.53
2023-09-17T02:02:54.121Z,2.60
2023-09-17T02:04:26.171Z,2.65
2023-09-17T02:05:58.587Z,2.40
2023-09-17T02:07:30.456Z,2.83
2023-09-17T02:09:02.359Z,2.90
2023-09-17T02:10:34.385Z,3.00
2023-09-17T02:12:06.380Z,3.75
2023-09-17T02:13:38.303Z,3.10
2023-09-17T02:15:13.154Z,3.30
2023-09-17T02:16:45.142Z,3.30
2023-09-17T02:18:17.084Z,3.30
2023-09-17T02:19:49.101Z,3.78
2023-09-17T02:21:21.573Z,4.10
2023-09-17T02:22:53.477Z,3.50
2023-09-17T02:24:25.479Z,4.18
2023-09-17T02:25:57.717Z,4.43
2023-09-17T02:27:29.598Z,3.83
2023-09-17T02:29:01.714Z,3.80
2023-09-17T02:30:33.605Z,3.97
2023-09-17T02:32:05.742Z,4.10
2023-09-17T02:33:37.726Z,4.43
2023-09-17T02:35:09.883Z,4.00
2023-09-17T02:36:42.517Z,3.90
2023-09-17T02:38:14.406Z,4.35
2023-09-17T02:39:46.307Z,3.83
2023-09-17T02:41:18.591Z,3.90
2023-09-17T02:42:51.308Z,3.88
2023-09-17T02:44:23.278Z,4.30
2023-09-17T02:45:56.792Z,3.95
2023-09-17T02:47:28.758Z,4.32
2023-09-17T02:49:01.476Z,4.28
2023-09-17T02:50:33.563Z,4.30
2023-09-17T02:52:07.675Z,4.28
2023-09-17T02:53:40.278Z,4.38
2023-09-17T02:55:12.157Z,4.78
2023-09-17T02:56:44.088Z,4.30
2023-09-17T02:58:16.488Z,4.25
2023-09-17T02:59:50.307Z,4.65
2023-09-17T03:01:24.647Z,4.18
2023-09-17T03:02:56.918Z,4.45
2023-09-17T03:04:29.505Z,4.47
2023-09-17T03:06:03.800Z,4.78
2023-09-17T03:07:35.882Z,4.57
2023-09-17T03:09:11.744Z,4.90
2023-09-17T03:10:44.054Z,4.60
2023-09-17T03:12:16.732Z,5.22
2023-09-17T03:13:49.509Z,4.85
2023-09-17T03:15:22.030Z,5.20
2023-09-17T03:16:54.279Z,5.57
2023-09-17T03:18:26.672Z,5.07
2023-09-17T03:19:58.937Z,5.43
2023-09-17T03:21:32.127Z,5.40
2023-09-17T03:23:05.780Z,5.20
2023-09-17T03:24:47.613Z,4.32
2023-09-17T03:26:30.193Z,4.82
2023-09-17T03:28:02.077Z,4.75
2023-09-17T03:29:34.558Z,5.18
2023-09-17T03:31:06.838Z,5.22
2023-09-17T03:32:46.308Z,4.20
2023-09-17T03:34:26.035Z,4.80
2023-09-17T03:36:00.199Z,4.40
2023-09-17T03:37:32.134Z,4.32
2023-09-17T03:39:07.231Z,4.72
2023-09-17T03:40:41.221Z,4.00
2023-09-17T03:42:13.748Z,4.13
2023-09-17T03:43:46.816Z,3.92
2023-09-17T03:45:19.249Z,4.00
2023-09-17T03:46:52.252Z,4.38
2023-09-17T03:48:24.320Z,4.20
2023-09-17T03:49:56.210Z,4.60
2023-09-17T03:51:30.218Z,4.47
2023-09-17T03:53:06.510Z,3.58
2023-09-17T03:54:39.396Z,3.40
2023-09-17T03:56:13.401Z,3.42
2023-09-17T03:57:46.106Z,3.40
2023-09-17T03:59:18.882Z,2.70
2023-09-17T04:00:50.889Z,2.83
2023-09-17T04:02:23.039Z,3.10
2023-09-17T04:03:55.183Z,3.20
2023-09-17T04:05:27.330Z,2.92
2023-09-17T04:07:00.125Z,2.85
2023-09-17T04:08:32.052Z,3.03
2023-09-17T04:10:07.415Z,3.05
2023-09-17T04:11:39.332Z,3.25
2023-09-17T04:13:11.194Z,2.88
2023-09-17T04:14:43.100Z,3.40
2023-09-17T04:16:15.090Z,3.75
2023-09-17T04:17:51.114Z,3.50
2023-09-17T04:19:23.296Z,3.38
2023-09-17T04:20:55.334Z,3.13
2023-09-17T04:22:27.252Z,3.00
2023-09-17T04:23:59.636Z,3.05
2023-09-17T04:25:33.584Z,2.72
2023-09-17T04:27:06.116Z,2.80
2023-09-17T04:28:38.301Z,2.92
2023-09-17T04:30:15.144Z,2.63
2023-09-17T04:31:48.444Z,3.03
2023-09-17T04:33:22.198Z,2.92
2023-09-17T04:34:54.309Z,2.80
2023-09-17T04:36:26.349Z,3.25
2023-09-17T04:37:58.371Z,3.05
2023-09-17T04:39:35.037Z,2.88
2023-09-17T04:41:07.213Z,3.20
2023-09-17T04:42:41.981Z,3.58
2023-09-17T04:44:15.254Z,3.15
2023-09-17T04:45:47.368Z,2.60
2023-09-17T04:47:41.340Z,3.00
2023-09-17T04:49:13.421Z,2.65
2023-09-17T04:50:48.116Z,2.72
2023-09-17T04:52:21.178Z,2.70
2023-09-17T04:53:53.219Z,2.78
2023-09-17T04:55:26.449Z,2.70
2023-09-17T04:56:58.607Z,2.58
2023-09-17T04:58:30.536Z,2.70
2023-09-17T05:00:12.446Z,2.95
2023-09-17T05:01:44.566Z,2.60
2023-09-17T05:03:17.005Z,2.90
2023-09-17T05:04:49.590Z,2.90
2023-09-17T05:06:21.629Z,2.47
2023-09-17T05:07:53.861Z,2.70
2023-09-17T05:09:27.372Z,3.00
2023-09-17T05:10:59.292Z,3.50
2023-09-17T05:12:31.354Z,2.50
2023-09-17T05:14:03.684Z,2.65
2023-09-17T05:15:38.130Z,2.63
2023-09-17T05:17:10.258Z,2.90
2023-09-17T05:18:43.246Z,2.88
2023-09-17T05:20:15.350Z,3.42
2023-09-17T05:21:47.213Z,3.33
2023-09-17T05:23:19.266Z,3.50
2023-09-17T05:24:53.562Z,3.78
2023-09-17T05:26:25.715Z,3.53
2023-09-17T05:27:59.307Z,2.90
2023-09-17T05:29:31.741Z,2.85
2023-09-17T05:31:04.776Z,3.10
2023-09-17T05:32:37.448Z,3.10
2023-09-17T05:34:09.661Z,3.20
2023-09-17T05:35:41.699Z,3.38
2023-09-17T05:37:13.736Z,2.63
2023-09-17T05:38:45.626Z,2.92
2023-09-17T05:40:17.897Z,3.20
2023-09-17T05:41:49.874Z,2.90
2023-09-17T05:43:21.897Z,2.70
2023-09-17T05:44:54.053Z,2.78
2023-09-17T05:46:26.617Z,2.65
2023-09-17T05:47:58.635Z,2.67
2023-09-17T05:49:30.707Z,2.75
2023-09-17T05:51:03.199Z,3.03
2023-09-17T05:52:36.432Z,2.80
2023-09-17T05:54:08.351Z,2.60
2023-09-17T05:55:40.369Z,3.10
2023-09-17T05:57:12.578Z,3.10
2023-09-17T05:58:44.599Z,3.13
2023-09-17T06:00:18.629Z,2.83
2023-09-17T06:01:51.496Z,3.10
2023-09-17T06:03:23.975Z,2.67
2023-09-17T06:04:58.397Z,3.10
2023-09-17T06:06:33.117Z,2.75
2023-09-17T06:08:05.222Z,3.05
2023-09-17T06:09:37.136Z,2.90
2023-09-17T06:11:09.248Z,2.80
2023-09-17T06:12:41.223Z,2.75
2023-09-17T06:14:14.236Z,3.05
2023-09-17T06:15:46.545Z,2.80
2023-09-17T06:17:18.737Z,3.00
2023-09-17T06:18:50.676Z,2.78
2023-09-17T06:20:22.767Z,2.90
2023-09-17T06:21:55.247Z,3.25
2023-09-17T06:23:28.667Z,3.05
2023-09-17T06:25:01.121Z,3.00
2023-09-17T06:26:36.865Z,2.70
2023-09-17T06:28:09.585Z,3.20
2023-09-17T06:29:41.713Z,2.85
2023-09-17T06:31:16.267Z,2.90
2023-09-17T06:32:49.028Z,2.78
2023-09-17T06:34:21.268Z,2.83
2023-09-17T06:35:53.192Z,2.95
2023-09-17T06:37:25.471Z,2.80
2023-09-17T06:38:57.924Z,2.80
2023-09-17T06:40:30.653Z,2.90
2023-09-17T06:42:02.630Z,2.78
2023-09-17T06:43:34.551Z,2.70
2023-09-17T06:45:07.090Z,2.90
2023-09-17T06:46:39.257Z,2.75
2023-09-17T06:48:11.363Z,3.03
2023-09-17T06:49:43.715Z,3.92
2023-09-17T06:51:15.940Z,3.35
2023-09-17T06:52:47.900Z,3.00
2023-09-17T06:54:19.757Z,3.35
2023-09-17T06:55:52.005Z,3.17
2023-09-17T06:57:23.960Z,3.10
2023-09-17T06:58:56.126Z,3.10
2023-09-17T07:00:28.047Z,2.90
2023-09-17T07:01:59.938Z,3.22
2023-09-17T07:03:32.328Z,2.97
2023-09-17T07:05:05.164Z,3.20
2023-09-17T07:06:37.134Z,2.70
2023-09-17T07:08:09.000Z,2.70
2023-09-17T07:09:40.978Z,3.20
2023-09-17T07:11:12.893Z,3.22
2023-09-17T07:12:44.900Z,2.97
2023-09-17T07:14:17.911Z,3.10
2023-09-17T07:15:49.804Z,3.03
2023-09-17T07:17:22.349Z,3.10
2023-09-17T07:18:54.355Z,3.03
2023-09-17T07:20:26.193Z,3.08
2023-09-17T07:21:58.034Z,2.60
2023-09-17T07:23:31.212Z,2.70
2023-09-17T07:25:05.610Z,3.00
2023-09-17T07:26:37.494Z,2.80
2023-09-17T07:28:09.859Z,2.70
2023-09-17T07:29:41.722Z,3.00
2023-09-17T07:31:15.385Z,2.75
2023-09-17T07:32:47.508Z,2.90
2023-09-17T07:34:19.440Z,2.78
2023-09-17T07:35:51.787Z,3.00
2023-09-17T07:37:33.441Z,3.30
2023-09-17T07:39:12.603Z,2.80
2023-09-17T07:40:44.590Z,3.05
2023-09-17T07:42:16.603Z,2.72
2023-09-17T07:43:48.556Z,2.67
2023-09-17T07:45:20.514Z,2.90
2023-09-17T07:46:52.486Z,2.60
2023-09-17T07:48:27.055Z,2.65
2023-09-17T07:49:59.164Z,2.55
2023-09-17T07:51:31.105Z,2.67
2023-09-17T07:53:03.681Z,2.15
2023-09-17T07:54:40.653Z,2.60
2023-09-17T07:56:12.573Z,2.50
2023-09-17T07:57:44.464Z,2.30
2023-09-17T07:59:16.334Z,2.25
2023-09-17T08:00:48.271Z,2.38
2023-09-17T08:02:20.531Z,2.40
2023-09-17T08:03:52.817Z,2.40
2023-09-17T08:05:26.537Z,2.40
2023-09-17T08:06:58.501Z,2.50
2023-09-17T08:08:30.567Z,2.47
2023-09-17T08:10:02.586Z,2.17
2023-09-17T08:11:34.518Z,2.30
2023-09-17T08:13:06.621Z,2.20
2023-09-17T08:14:38.615Z,2.30
2023-09-17T08:16:10.579Z,2.50
2023-09-17T08:17:44.902Z,2.30
2023-09-17T08:19:16.865Z,2.60
2023-09-17T08:20:48.823Z,2.47
2023-09-17T08:22:22.811Z,2.92
2023-09-17T08:24:15.947Z,2.55
2023-09-17T08:26:12.116Z,2.53
2023-09-17T08:28:08.116Z,2.35
2023-09-17T08:30:01.246Z,2.50
2023-09-17T08:31:53.184Z,2.40
2023-09-17T08:33:46.633Z,2.17
2023-09-17T08:35:22.686Z,2.40
2023-09-17T08:36:55.054Z,2.22
2023-09-17T08:38:27.833Z,2.17
2023-09-17T08:39:59.751Z,2.10
2023-09-17T08:41:31.872Z,2.50
2023-09-17T08:43:04.555Z,2.20
2023-09-17T08:44:37.349Z,2.35
2023-09-17T08:46:09.381Z,2.58
2023-09-17T08:47:41.357Z,2.22
2023-09-17T08:49:13.344Z,2.05
2023-09-17T08:50:53.142Z,2.20
2023-09-17T08:52:27.326Z,2.47
2023-09-17T08:54:15.069Z,2.33
2023-09-17T08:55:56.567Z,2.45
2023-09-17T08:57:31.957Z,2.20
2023-09-17T08:59:23.852Z,2.00
2023-09-17T09:00:59.678Z,2.13
2023-09-17T09:02:33.987Z,2.08
2023-09-17T09:04:07.195Z,1.90
2023-09-17T09:05:39.558Z,2.28
2023-09-17T09:07:11.767Z,2.40
2023-09-17T09:08:44.370Z,2.10
2023-09-17T09:10:17.061Z,2.30
2023-09-17T09:11:49.940Z,2.47
2023-09-17T09:13:22.898Z,2.30
2023-09-17T09:14:55.686Z,2.13
2023-09-17T09:16:28.515Z,2.25
2023-09-17T09:18:00.599Z,2.20
2023-09-17T09:19:32.567Z,2.38
2023-09-17T09:21:04.511Z,2.47
2023-09-17T09:22:36.673Z,2.13
2023-09-17T09:24:09.580Z,2.10
2023-09-17T09:25:41.528Z,2.42
2023-09-17T09:27:13.423Z,2.10
2023-09-17T09:28:46.093Z,2.08
2023-09-17T09:30:18.143Z,2.25
2023-09-17T09:31:52.839Z,2.40
2023-09-17T09:33:25.584Z,2.20
2023-09-17T09:34:59.252Z,2.22
2023-09-17T09:36:35.380Z,2.20
2023-09-17T09:38:07.448Z,2.58
2023-09-17T09:39:43.088Z,2.10
2023-09-17T09:41:15.036Z,2.30
2023-09-17T09:42:48.304Z,1.90
2023-09-17T09:44:20.289Z,2.20
2023-09-17T09:45:52.338Z,2.10
2023-09-17T09:47:24.599Z,2.03
2023-09-17T09:49:01.443Z,2.15
2023-09-17T09:50:33.403Z,2.17
2023-09-17T09:52:05.740Z,1.92
2023-09-17T09:53:37.598Z,2.13
2023-09-17T09:55:09.577Z,1.73
2023-09-17T09:56:41.642Z,1.75
2023-09-17T09:58:14.644Z,2.10
2023-09-17T09:59:48.321Z,1.90
2023-09-17T10:01:20.573Z,2.22
2023-09-17T10:02:52.608Z,1.98
2023-09-17T10:04:24.665Z,2.33
2023-09-17T10:06:05.758Z,2.10
2023-09-17T10:07:37.759Z,2.00
2023-09-17T10:09:12.184Z,2.05
2023-09-17T10:10:44.624Z,1.90
2023-09-17T10:12:17.402Z,2.00
2023-09-17T10:13:53.049Z,1.73
2023-09-17T10:15:25.232Z,1.60
2023-09-17T10:16:57.267Z,1.90
2023-09-17T10:18:31.379Z,2.13
2023-09-17T10:20:07.813Z,1.60
2023-09-17T10:21:40.968Z,1.58
2023-09-17T10:23:14.523Z,1.70
2023-09-17T10:24:47.005Z,2.33
2023-09-17T10:26:22.359Z,1.60
2023-09-17T10:27:55.850Z,1.80
2023-09-17T10:29:29.292Z,2.05
2023-09-17T10:31:02.643Z,1.70
2023-09-17T10:32:36.613Z,1.73
2023-09-17T10:34:11.168Z,2.00
2023-09-17T10:35:45.073Z,1.95
2023-09-17T10:37:19.130Z,1.90
2023-09-17T10:38:53.574Z,1.77
2023-09-17T10:40:26.991Z,2.00
2023-09-17T10:42:02.412Z,1.98
2023-09-17T10:43:36.618Z,2.00
2023-09-17T10:45:10.665Z,1.80
2023-09-17T10:46:46.692Z,1.70
2023-09-17T10:48:21.988Z,1.75
2023-09-17T10:49:54.626Z,1.92
2023-09-17T10:51:29.689Z,1.80
2023-09-17T10:53:02.030Z,1.80
2023-09-17T10:54:34.000Z,2.00
2023-09-17T10:56:10.659Z,1.92
2023-09-17T10:57:46.156Z,1.70
2023-09-17T10:59:19.475Z,2.08
2023-09-17T11:00:52.875Z,1.90
2023-09-17T11:02:29.272Z,1.77
2023-09-17T11:04:11.583Z,1.77
2023-09-17T11:05:44.605Z,1.83
2023-09-17T11:07:17.800Z,1.83
2023-09-17T11:08:50.459Z,2.92
2023-09-17T11:10:31.862Z,1.70
2023-09-17T11:12:05.714Z,2.00
2023-09-17T11:13:38.000Z,1.70
2023-09-17T11:15:11.512Z,1.70
2023-09-17T11:16:43.726Z,1.95
2023-09-17T11:18:16.119Z,1.70
2023-09-17T11:19:48.066Z,1.55
2023-09-17T11:21:20.370Z,1.75
2023-09-17T11:22:52.346Z,1.83
2023-09-17T11:24:24.246Z,1.70
2023-09-17T11:25:56.593Z,1.95
2023-09-17T11:27:45.478Z,1.67
2023-09-17T11:29:17.440Z,1.63
2023-09-17T11:30:57.578Z,1.83
2023-09-17T11:32:30.327Z,1.90
2023-09-17T11:34:06.364Z,1.55
2023-09-17T11:35:38.292Z,1.50
2023-09-17T11:37:10.294Z,1.70
2023-09-17T11:38:47.802Z,1.75
2023-09-17T11:40:20.648Z,2.03
2023-09-17T11:41:55.405Z,2.25
2023-09-17T11:43:27.380Z,1.65
2023-09-17T11:45:00.368Z,1.80
2023-09-17T11:46:32.607Z,1.55
2023-09-17T11:48:06.342Z,1.50
2023-09-17T11:49:38.736Z,1.70
2023-09-17T11:51:33.384Z,1.35
2023-09-17T11:53:08.562Z,1.60
2023-09-17T11:54:52.382Z,1.60
2023-09-17T11:56:25.916Z,1.80
2023-09-17T11:58:15.259Z,1.70
2023-09-17T11:59:47.181Z,1.48
2023-09-17T12:01:19.144Z,1.48
2023-09-17T12:02:52.356Z,1.73
2023-09-17T12:04:30.447Z,1.55
2023-09-17T12:06:02.520Z,1.52
2023-09-17T12:07:45.809Z,1.50
2023-09-17T12:11:23.391Z,1.50
2023-09-17T12:12:56.193Z,1.38
2023-09-17T12:14:28.519Z,1.95
2023-09-17T12:16:01.940Z,1.50
2023-09-17T12:17:43.414Z,1.88
2023-09-17T12:19:21.688Z,1.40
2023-09-17T12:21:00.854Z,1.92
2023-09-17T12:22:33.461Z,1.90
2023-09-17T12:24:09.824Z,1.70
2023-09-17T12:25:46.109Z,1.48
2023-09-17T12:27:36.520Z,1.60
2023-09-17T12:29:10.591Z,1.50
2023-09-17T12:30:42.640Z,1.73
2023-09-17T12:32:18.255Z,1.92
2023-09-17T12:33:50.588Z,1.70
2023-09-17T12:35:24.408Z,1.80
2023-09-17T12:36:56.460Z,1.50
2023-09-17T12:38:28.314Z,1.67
2023-09-17T12:40:00.605Z,1.70
2023-09-17T12:41:40.514Z,1.80
2023-09-17T12:44:45.424Z,1.52
2023-09-17T12:46:17.712Z,1.80
2023-09-17T12:47:49.697Z,1.83
2023-09-17T12:49:23.260Z,1.98
2023-09-17T12:50:56.526Z,1.60
2023-09-17T12:52:28.534Z,1.70
2023-09-17T12:54:00.780Z,1.80
2023-09-17T12:55:32.877Z,1.88
2023-09-17T12:57:05.680Z,1.63
2023-09-17T12:58:37.929Z,1.70
2023-09-17T13:00:10.675Z,1.90
2023-09-17T13:01:53.086Z,1.63
2023-09-17T13:03:25.250Z,1.90
2023-09-17T13:04:57.747Z,1.88
2023-09-17T13:06:32.028Z,2.08
2023-09-17T13:08:07.701Z,1.50
2023-09-17T13:09:39.712Z,1.50
2023-09-17T13:11:11.685Z,1.60
2023-09-17T13:12:46.578Z,2.13
2023-09-17T13:14:18.677Z,1.55
2023-09-17T13:15:50.608Z,1.75
2023-09-17T13:17:24.107Z,1.50
2023-09-17T13:18:56.149Z,2.72
2023-09-17T13:20:28.737Z,1.67
2023-09-17T13:22:00.946Z,1.70
2023-09-17T13:23:33.770Z,1.50
2023-09-17T13:25:07.855Z,1.40
2023-09-17T13:26:39.831Z,1.77
2023-09-17T13:28:14.100Z,1.80
2023-09-17T13:29:56.502Z,1.70
2023-09-17T13:31:28.416Z,1.60
2023-09-17T13:33:01.190Z,1.60
2023-09-17T13:34:33.109Z,1.70
2023-09-17T13:36:10.571Z,1.60
2023-09-17T13:37:42.940Z,1.40
2023-09-17T13:39:14.936Z,1.60
2023-09-17T13:40:49.548Z,1.50
2023-09-17T13:42:22.461Z,1.73
2023-09-17T13:43:54.357Z,1.33
2023-09-17T13:45:26.228Z,1.70
2023-09-17T13:46:58.145Z,1.33
2023-09-17T13:48:31.190Z,1.40
2023-09-17T13:50:03.351Z,1.58
2023-09-17T13:51:35.227Z,1.50
2023-09-17T13:53:07.210Z,1.50
2023-09-17T13:54:40.478Z,1.60
2023-09-17T13:56:12.668Z,1.35
2023-09-17T13:57:44.551Z,1.52
2023-09-17T13:59:16.499Z,1.60
2023-09-17T14:00:48.682Z,1.52
2023-09-17T14:02:20.539Z,1.50
2023-09-17T14:03:52.828Z,1.40
2023-09-17T14:05:24.835Z,1.25
2023-09-17T14:06:56.845Z,1.40
2023-09-17T14:08:31.063Z,1.50
2023-09-17T14:10:03.006Z,1.50
2023-09-17T14:11:37.222Z,1.63
2023-09-17T14:13:09.374Z,1.50
2023-09-17T14:14:41.261Z,1.30
2023-09-17T14:16:13.124Z,1.30
2023-09-17T14:17:45.096Z,1.35
2023-09-17T14:19:20.013Z,1.50
2023-09-17T14:20:52.158Z,1.10
2023-09-17T14:22:24.007Z,1.40
2023-09-17T14:23:55.860Z,1.23
2023-09-17T14:25:27.734Z,1.50
2023-09-17T14:26:59.790Z,1.38
2023-09-17T14:28:31.624Z,1.27
2023-09-17T14:30:05.626Z,1.33
2023-09-17T14:31:40.232Z,1.20
2023-09-17T14:33:16.620Z,1.17
2023-09-17T14:34:48.571Z,1.30
2023-09-17T14:36:20.429Z,1.20
2023-09-17T14:37:52.418Z,1.15
2023-09-17T14:39:24.280Z,1.60
2023-09-17T14:40:56.504Z,1.20
2023-09-17T14:42:28.413Z,1.27
2023-09-17T14:44:00.663Z,1.17
2023-09-17T14:45:33.358Z,1.00
2023-09-17T14:47:05.388Z,1.25
2023-09-17T14:48:37.455Z,1.10
2023-09-17T14:50:10.741Z,1.20
2023-09-17T14:51:42.660Z,1.35
2023-09-17T14:53:14.608Z,1.38
2023-09-17T14:54:47.650Z,1.48
2023-09-17T14:56:19.556Z,1.45
2023-09-17T14:57:51.434Z,1.30
2023-09-17T14:59:24.525Z,1.33
2023-09-17T15:00:57.113Z,1.38
2023-09-17T15:02:29.800Z,1.85
2023-09-17T15:04:02.331Z,1.67
2023-09-17T15:05:34.337Z,1.60
2023-09-17T15:07:06.197Z,1.70
2023-09-17T15:08:38.066Z,1.50
2023-09-17T15:10:10.979Z,1.80
2023-09-17T15:11:42.824Z,1.60
2023-09-17T15:13:14.725Z,1.60
2023-09-17T15:14:46.674Z,1.80
2023-09-17T15:16:18.585Z,1.75
2023-09-17T15:17:50.538Z,1.73
2023-09-17T15:19:22.509Z,1.20
2023-09-17T15:20:54.672Z,1.50
2023-09-17T15:22:26.694Z,1.88
2023-09-17T15:23:58.640Z,1.95
2023-09-17T15:25:30.591Z,1.77
2023-09-17T15:27:02.534Z,1.63
2023-09-17T15:28:34.379Z,1.50
2023-09-17T15:30:07.689Z,1.73
2023-09-17T15:31:41.326Z,1.83
2023-09-17T15:33:13.341Z,1.55
2023-09-17T15:34:45.836Z,1.33
2023-09-17T15:36:18.136Z,1.55
2023-09-17T15:37:50.083Z,2.20
2023-09-17T15:39:22.006Z,1.90
2023-09-17T15:40:56.364Z,2.83
2023-09-17T15:42:28.277Z,13.90
2023-09-17T15:44:00.255Z,10.95
2023-09-17T15:45:32.527Z,6.13
2023-09-17T15:47:04.670Z,3.33
2023-09-17T15:48:37.858Z,2.53
2023-09-17T15:50:09.885Z,2.25
2023-09-17T15:51:41.757Z,2.00
2023-09-17T15:53:13.665Z,1.98
2023-09-17T15:54:45.535Z,1.88
2023-09-17T15:56:17.454Z,1.85
2023-09-17T15:57:50.501Z,2.67
2023-09-17T15:59:23.066Z,3.65
2023-09-17T16:00:54.959Z,2.80
2023-09-17T16:02:26.940Z,2.40
2023-09-17T16:03:59.040Z,2.30
2023-09-17T16:05:31.189Z,2.00
2023-09-17T16:07:03.301Z,1.90
2023-09-17T16:08:35.209Z,2.00
2023-09-17T16:10:07.692Z,2.25
2023-09-17T16:11:39.581Z,2.50
2023-09-17T16:13:11.492Z,2.40
2023-09-17T16:14:43.467Z,2.10
2023-09-17T16:16:15.360Z,2.35
2023-09-17T16:17:47.334Z,2.22
2023-09-17T16:19:21.065Z,2.20
2023-09-17T16:20:52.978Z,2.33
2023-09-17T16:22:25.113Z,2.83
2023-09-17T16:23:56.989Z,2.50
2023-09-17T16:25:28.846Z,2.40
2023-09-17T16:27:00.753Z,2.10
2023-09-17T16:28:32.690Z,2.20
2023-09-17T16:30:06.505Z,2.00
2023-09-17T16:31:41.014Z,2.42
2023-09-17T16:33:13.095Z,1.98
2023-09-17T16:34:45.119Z,2.28
2023-09-17T16:36:17.005Z,1.90
2023-09-17T16:37:48.994Z,2.50
2023-09-17T16:39:20.943Z,2.50
2023-09-17T16:40:53.045Z,2.13
2023-09-17T16:42:25.133Z,2.65
2023-09-17T16:43:57.023Z,2.40
2023-09-17T16:45:28.910Z,2.50
2023-09-17T16:47:00.843Z,2.63
2023-09-17T16:48:32.753Z,2.50
2023-09-17T16:50:05.153Z,2.60
2023-09-17T16:51:46.515Z,2.10
2023-09-17T16:53:19.578Z,2.30
2023-09-17T16:54:51.575Z,2.40
2023-09-17T16:56:23.522Z,2.38
2023-09-17T16:57:55.846Z,2.70
2023-09-17T16:59:27.743Z,2.38
2023-09-17T17:00:59.723Z,2.60
2023-09-17T17:02:31.733Z,2.65
2023-09-17T17:04:03.969Z,2.40
2023-09-17T17:05:36.300Z,2.60
2023-09-17T17:07:08.216Z,2.67
2023-09-17T17:08:40.096Z,2.70
2023-09-17T17:10:12.405Z,2.55
2023-09-17T17:11:44.302Z,2.50
2023-09-17T17:13:16.333Z,2.45
2023-09-17T17:14:49.138Z,2.50
2023-09-17T17:16:21.013Z,2.60
2023-09-17T17:17:52.975Z,2.80
2023-09-17T17:19:24.865Z,2.58
2023-09-17T17:20:56.776Z,2.45
2023-09-17T17:22:42.421Z,2.42
2023-09-17T17:24:14.325Z,2.50
2023-09-17T17:25:47.436Z,2.53
2023-09-17T17:27:19.547Z,2.63
2023-09-17T17:28:51.435Z,2.75
2023-09-17T17:30:23.285Z,2.15
2023-09-17T17:31:55.206Z,2.20
2023-09-17T17:33:28.341Z,2.80
2023-09-17T17:35:00.331Z,2.45
2023-09-17T17:36:32.763Z,2.50
2023-09-17T17:38:04.800Z,2.60
2023-09-17T17:39:36.989Z,2.15
2023-09-17T17:41:09.766Z,2.20
2023-09-17T17:42:41.716Z,2.58
2023-09-17T17:44:13.755Z,2.40
2023-09-17T17:45:46.175Z,2.35
2023-09-17T17:47:18.133Z,3.03
2023-09-17T17:48:50.796Z,2.70
2023-09-17T17:50:23.174Z,2.13
2023-09-17T17:51:55.500Z,2.67
2023-09-17T17:53:27.419Z,2.60
2023-09-17T17:54:59.394Z,2.83
2023-09-17T17:56:31.560Z,2.83
2023-09-17T17:58:05.512Z,2.55
2023-09-17T17:59:37.468Z,2.67
2023-09-17T18:01:09.991Z,2.67
2023-09-17T18:02:43.100Z,2.80
2023-09-17T18:04:15.133Z,2.88
2023-09-17T18:05:46.987Z,2.40
2023-09-17T18:07:18.921Z,3.13
2023-09-17T18:08:50.783Z,2.70
2023-09-17T18:10:23.072Z,2.53
2023-09-17T18:11:55.313Z,2.60
2023-09-17T18:13:27.173Z,3.08
2023-09-17T18:14:59.447Z,2.75
2023-09-17T18:16:31.887Z,2.60
2023-09-17T18:18:03.949Z,2.88
2023-09-17T18:19:36.300Z,2.80
2023-09-17T18:21:08.161Z,2.80
2023-09-17T18:22:40.190Z,2.67
2023-09-17T18:24:12.420Z,2.65
2023-09-17T18:25:45.574Z,2.50
2023-09-17T18:27:18.544Z,2.72
2023-09-17T18:28:50.583Z,2.42
2023-09-17T18:30:22.489Z,2.70
2023-09-17T18:31:56.661Z,2.50
2023-09-17T18:33:28.981Z,2.20
2023-09-17T18:35:02.086Z,2.50
2023-09-17T18:36:35.470Z,2.45
2023-09-17T18:38:07.962Z,2.47
2023-09-17T18:39:40.475Z,2.40
2023-09-17T18:41:12.641Z,2.30
2023-09-17T18:42:45.159Z,2.50
2023-09-17T18:44:17.645Z,2.80
2023-09-17T18:45:49.689Z,2.53
2023-09-17T18:47:22.119Z,2.33
2023-09-17T18:48:54.004Z,2.42
2023-09-17T18:50:26.386Z,2.22
2023-09-17T18:51:59.416Z,2.45
2023-09-17T18:53:31.333Z,2.50
2023-09-17T18:55:04.092Z,2.60
2023-09-17T18:56:36.048Z,2.50
2023-09-17T18:58:07.948Z,2.28
2023-09-17T18:59:39.863Z,2.70
2023-09-17T19:01:12.134Z,2.38
2023-09-17T19:02:45.134Z,2.70
2023-09-17T19:04:17.389Z,2.25
2023-09-17T19:05:49.229Z,2.72
2023-09-17T19:07:21.090Z,2.58
2023-09-17T19:08:52.970Z,2.47
2023-09-17T19:10:24.852Z,2.40
2023-09-17T19:11:57.317Z,2.80
2023-09-17T19:13:29.318Z,2.35
2023-09-17T19:15:01.652Z,2.65
2023-09-17T19:16:33.636Z,2.63
2023-09-17T19:18:05.951Z,2.92
2023-09-17T19:19:37.881Z,2.30
2023-09-17T19:21:15.586Z,2.30
2023-09-17T19:22:47.805Z,2.58
2023-09-17T19:24:19.778Z,2.55
2023-09-17T19:25:52.306Z,2.60
2023-09-17T19:27:24.712Z,2.42
2023-09-17T19:28:57.672Z,2.42
2023-09-17T19:30:29.604Z,2.15
2023-09-17T19:32:02.056Z,2.22
2023-09-17T19:33:34.125Z,2.40
2023-09-17T19:35:06.590Z,2.30
2023-09-17T19:36:41.649Z,2.10
2023-09-17T19:38:13.844Z,2.30
2023-09-17T19:39:46.929Z,2.33
2023-09-17T19:41:18.930Z,2.30
2023-09-17T19:42:51.074Z,2.30
2023-09-17T19:44:23.140Z,2.58
2023-09-17T19:45:57.364Z,2.28
2023-09-17T19:47:29.475Z,2.30
2023-09-17T19:49:01.617Z,2.58
2023-09-17T19:50:33.956Z,2.85
2023-09-17T19:52:06.749Z,2.50
2023-09-17T19:53:41.422Z,2.38
2023-09-17T19:55:13.356Z,2.50
2023-09-17T19:56:47.987Z,2.13
2023-09-17T19:58:19.886Z,2.45
2023-09-17T19:59:52.028Z,2.55
2023-09-17T20:01:24.462Z,2.45
2023-09-17T20:02:57.141Z,2.35
2023-09-17T20:04:29.918Z,2.53
2023-09-17T20:06:01.821Z,2.50
2023-09-17T20:07:34.079Z,2.83
2023-09-17T20:09:11.373Z,2.50
2023-09-17T20:10:43.271Z,2.45
2023-09-17T20:12:15.304Z,2.20
2023-09-17T20:13:47.660Z,2.20
2023-09-17T20:15:19.552Z,2.38
2023-09-17T20:16:51.465Z,2.30
2023-09-17T20:18:23.527Z,2.30
2023-09-17T20:19:56.487Z,2.28
2023-09-17T20:21:30.116Z,2.13
2023-09-17T20:23:03.122Z,2.40
2023-09-17T20:24:35.321Z,2.42
2023-09-17T20:26:10.976Z,2.13
2023-09-17T20:28:03.085Z,2.60
2023-09-17T20:29:35.474Z,2.25
2023-09-17T20:31:07.410Z,2.50
2023-09-17T20:32:39.442Z,2.28
2023-09-17T20:34:15.138Z,2.40
2023-09-17T20:35:48.039Z,2.33
2023-09-17T20:37:20.064Z,2.30
2023-09-17T20:38:52.871Z,2.40
2023-09-17T20:40:26.214Z,2.45
2023-09-17T20:41:58.390Z,2.30
2023-09-17T20:43:30.736Z,2.40
2023-09-17T20:45:02.663Z,2.30
2023-09-17T20:46:37.109Z,2.08